createdAt,value
2017-06-18T00:00:03.327Z,77.8
2017-06-18T00:01:02.817Z,77.8
2017-06-18T00:02:01.917Z,77.8
2017-06-18T00:02:32.455Z,77.8
2017-06-18T00:04:00.306Z,77.8
2017-06-18T00:05:00.028Z,77.8
2017-06-18T00:06:58.633Z,77.8
2017-06-18T00:07:57.847Z,77.7
2017-06-18T00:08:56.945Z,78
2017-06-18T00:09:56.169Z,77.9
2017-06-18T00:10:55.466Z,77.9
2017-06-18T00:11:54.685Z,77.9
2017-06-18T00:12:53.907Z,77.9
2017-06-18T00:13:53.082Z,77.8
2017-06-18T00:14:52.815Z,78
2017-06-18T00:15:51.800Z,78.1
2017-06-18T00:16:50.906Z,78.2
2017-06-18T00:17:50.627Z,78.2
2017-06-18T00:18:49.846Z,78.2
2017-06-18T00:19:49.070Z,78.1
2017-06-18T00:20:48.178Z,78.9
2017-06-18T00:21:47.283Z,78.5
2017-06-18T00:22:47.011Z,78.8
2017-06-18T00:23:45.996Z,78.8
2017-06-18T00:24:45.606Z,78.8
2017-06-18T00:25:44.859Z,78.5
2017-06-18T00:26:43.965Z,78.6
2017-06-18T00:27:42.951Z,78.7
2017-06-18T00:28:42.558Z,78.5
2017-06-18T00:29:41.663Z,78.6
2017-06-18T00:30:41.152Z,78.8
2017-06-18T00:31:40.253Z,78.9
2017-06-18T00:32:39.475Z,78.8
2017-06-18T00:33:39.199Z,78.8
2017-06-18T00:34:38.302Z,78.7
2017-06-18T00:35:37.529Z,78.7
2017-06-18T00:36:36.632Z,78.8
2017-06-18T00:37:35.856Z,78.7
2017-06-18T00:38:35.578Z,78.8
2017-06-18T00:39:34.797Z,78.8
2017-06-18T00:40:34.014Z,78.8
2017-06-18T00:41:33.234Z,78.8
2017-06-18T00:42:32.985Z,78.8
2017-06-18T00:43:31.703Z,78.7
2017-06-18T00:44:30.823Z,78.8
2017-06-18T00:45:30.432Z,78.7
2017-06-18T00:46:29.654Z,78.7
2017-06-18T00:47:28.883Z,78.8
2017-06-18T00:48:28.102Z,78.8
2017-06-18T00:50:26.715Z,78.8
2017-06-18T00:51:25.932Z,78.8
2017-06-18T00:52:25.029Z,78.7
2017-06-18T00:53:24.632Z,78.7
2017-06-18T00:54:23.854Z,78.8
2017-06-18T00:55:22.956Z,78.8
2017-06-18T00:56:22.192Z,78.8
2017-06-18T00:57:21.422Z,78.8
2017-06-18T00:58:21.025Z,78.9
2017-06-18T00:59:20.252Z,78.9
2017-06-18T01:00:19.388Z,78.9
2017-06-18T01:01:18.498Z,79.2
2017-06-18T01:02:17.687Z,79.2
2017-06-18T01:03:17.402Z,78.9
2017-06-18T01:04:16.509Z,79.2
2017-06-18T01:05:15.682Z,79.1
2017-06-18T01:06:14.792Z,79.2
2017-06-18T01:07:14.404Z,79.3
2017-06-18T01:08:13.625Z,79.2
2017-06-18T01:09:12.851Z,79.3
2017-06-18T01:10:11.951Z,79.4
2017-06-18T01:11:11.175Z,79.5
2017-06-18T01:12:10.909Z,79.6
2017-06-18T01:13:10.130Z,79.5
2017-06-18T01:14:09.231Z,79.4
2017-06-18T01:15:08.452Z,79.6
2017-06-18T01:16:07.680Z,79.6
2017-06-18T01:17:06.780Z,79.6
2017-06-18T01:18:06.382Z,79.6
2017-06-18T01:19:05.482Z,79.7
2017-06-18T01:20:04.699Z,79.7
2017-06-18T01:21:04.184Z,79.7
2017-06-18T01:22:03.284Z,79.8
2017-06-18T01:23:02.394Z,79.8
2017-06-18T01:24:02.122Z,79.9
2017-06-18T01:25:01.337Z,80
2017-06-18T01:26:00.441Z,79.8
2017-06-18T01:26:59.669Z,79.9
2017-06-18T01:27:58.896Z,79.9
2017-06-18T01:28:58.116Z,80
2017-06-18T01:29:28.642Z,80
2017-06-18T01:29:59.178Z,80
2017-06-18T01:30:29.709Z,80
2017-06-18T01:31:55.990Z,80.1
2017-06-18T01:32:55.092Z,79.9
2017-06-18T01:33:54.694Z,80
2017-06-18T01:34:53.798Z,80
2017-06-18T01:35:53.021Z,80
2017-06-18T01:36:52.123Z,80.1
2017-06-18T01:37:52.423Z,80.1
2017-06-18T01:38:50.905Z,80
2017-06-18T01:39:50.007Z,80.1
2017-06-18T01:40:49.108Z,80.3
2017-06-18T01:41:48.714Z,80.2
2017-06-18T01:42:47.814Z,80.3
2017-06-18T01:43:47.417Z,80.2
2017-06-18T01:44:46.636Z,80.2
2017-06-18T01:45:45.646Z,80.2
2017-06-18T01:46:44.753Z,80.3
2017-06-18T01:47:44.048Z,80.4
2017-06-18T01:48:43.273Z,80.6
2017-06-18T01:49:42.995Z,80.6
2017-06-18T01:50:42.216Z,80.5
2017-06-18T01:51:41.316Z,80.6
2017-06-18T01:52:40.537Z,80.6
2017-06-18T01:53:40.022Z,80.6
2017-06-18T01:54:39.251Z,80.8
2017-06-18T01:55:38.468Z,80.8
2017-06-18T01:56:37.762Z,80.9
2017-06-18T01:57:37.047Z,80.9
2017-06-18T01:58:36.299Z,81.1
2017-06-18T01:59:35.519Z,81.2
2017-06-18T02:00:34.627Z,81.1
2017-06-18T02:01:33.855Z,81.1
2017-06-18T02:02:33.077Z,81.1
2017-06-18T02:03:32.061Z,81.1
2017-06-18T02:04:31.434Z,81.2
2017-06-18T02:05:30.655Z,81.2
2017-06-18T02:06:29.874Z,81.2
2017-06-18T02:07:29.602Z,81.2
2017-06-18T02:08:28.825Z,81.2
2017-06-18T02:09:27.697Z,81.1
2017-06-18T02:09:58.737Z,81.1
2017-06-18T02:11:26.152Z,81.1
2017-06-18T02:12:25.771Z,81.1
2017-06-18T02:13:24.988Z,81.1
2017-06-18T02:14:24.085Z,81.1
2017-06-18T02:15:23.366Z,81
2017-06-18T02:16:22.594Z,81
2017-06-18T02:17:21.815Z,81
2017-06-18T02:18:21.068Z,81.1
2017-06-18T02:19:20.289Z,81.2
2017-06-18T02:20:19.509Z,81.2
2017-06-18T02:21:18.675Z,81.2
2017-06-18T02:22:17.959Z,81.4
2017-06-18T02:23:17.570Z,81.4
2017-06-18T02:26:15.072Z,81.4
2017-06-18T02:27:14.178Z,81.6
2017-06-18T02:28:13.912Z,81.6
2017-06-18T02:29:13.588Z,81.5
2017-06-18T02:30:12.314Z,81.7
2017-06-18T02:31:11.541Z,81.6
2017-06-18T02:32:10.774Z,81.7
2017-06-18T02:33:09.875Z,81.6
2017-06-18T02:34:09.104Z,81.8
2017-06-18T02:35:08.324Z,81.7
2017-06-18T02:36:07.433Z,81.8
2017-06-18T02:37:07.157Z,81.6
2017-06-18T02:38:06.268Z,81.8
2017-06-18T02:39:05.493Z,81.7
2017-06-18T02:40:04.720Z,81.8
2017-06-18T02:41:03.838Z,81.7
2017-06-18T02:42:03.070Z,81.7
2017-06-18T02:43:02.255Z,81.7
2017-06-18T02:44:01.479Z,81.7
2017-06-18T02:45:01.215Z,81.6
2017-06-18T02:46:00.451Z,81.6
2017-06-18T02:47:00.108Z,81.5
2017-06-18T02:47:58.860Z,81.5
2017-06-18T02:48:58.089Z,81.5
2017-06-18T02:49:57.320Z,81.5
2017-06-18T02:50:56.323Z,81.5
2017-06-18T02:51:55.849Z,81.4
2017-06-18T02:52:55.077Z,81.4
2017-06-18T02:53:54.316Z,81.4
2017-06-18T02:54:53.548Z,81.4
2017-06-18T02:55:52.673Z,81.5
2017-06-18T02:56:51.901Z,81.5
2017-06-18T02:57:51.201Z,81.4
2017-06-18T02:58:50.193Z,81.4
2017-06-18T02:59:49.963Z,81.3
2017-06-18T03:00:48.689Z,81.2
2017-06-18T03:01:48.301Z,81.1
2017-06-18T03:02:47.531Z,80.9
2017-06-18T03:03:46.470Z,80.9
2017-06-18T03:04:46.094Z,80.9
2017-06-18T03:05:45.324Z,80.9
2017-06-18T03:06:44.437Z,81.1
2017-06-18T03:07:43.555Z,81
2017-06-18T03:08:42.783Z,81
2017-06-18T03:09:41.780Z,81
2017-06-18T03:10:41.512Z,81
2017-06-18T03:11:40.743Z,81
2017-06-18T03:12:39.971Z,81
2017-06-18T03:13:39.082Z,81
2017-06-18T03:14:38.310Z,80.9
2017-06-18T03:15:38.116Z,81
2017-06-18T03:16:36.838Z,81.1
2017-06-18T03:17:36.067Z,81.1
2017-06-18T03:18:35.297Z,81.2
2017-06-18T03:19:34.529Z,81.3
2017-06-18T03:21:33.153Z,81.3
2017-06-18T03:22:32.268Z,81.3
2017-06-18T03:23:31.808Z,81.3
2017-06-18T03:24:30.534Z,81.3
2017-06-18T03:25:29.649Z,81.3
2017-06-18T03:26:29.378Z,81.3
2017-06-18T03:27:28.489Z,81.2
2017-06-18T03:28:27.725Z,81.2
2017-06-18T03:29:26.953Z,81.2
2017-06-18T03:30:26.181Z,81.2
2017-06-18T03:31:25.412Z,81.3
2017-06-18T03:32:24.642Z,81.2
2017-06-18T03:33:23.877Z,81.3
2017-06-18T03:34:23.682Z,81.1
2017-06-18T03:35:22.183Z,81
2017-06-18T03:36:21.414Z,81
2017-06-18T03:37:21.024Z,81
2017-06-18T03:39:18.905Z,80.9
2017-06-18T03:40:18.522Z,80.8
2017-06-18T03:41:18.018Z,80.8
2017-06-18T03:42:16.894Z,80.7
2017-06-18T03:44:15.392Z,80.6
2017-06-18T03:45:14.631Z,80.3
2017-06-18T03:46:13.746Z,80.3
2017-06-18T03:47:12.976Z,80.1
2017-06-18T03:48:12.670Z,79.9
2017-06-18T03:49:11.900Z,79.7
2017-06-18T03:50:11.133Z,79.5
2017-06-18T03:51:10.248Z,79.5
2017-06-18T03:52:09.484Z,79.3
2017-06-18T03:53:08.593Z,79.1
2017-06-18T03:54:07.829Z,78.9
2017-06-18T03:55:07.071Z,78.6
2017-06-18T03:56:06.186Z,78.6
2017-06-18T03:57:05.417Z,78.6
2017-06-18T03:58:04.650Z,78
2017-06-18T03:59:03.766Z,77.8
2017-06-18T04:00:02.995Z,77.6
2017-06-18T04:01:02.490Z,77.5
2017-06-18T04:02:01.723Z,77.2
2017-06-18T04:03:00.843Z,77.1
2017-06-18T04:04:00.073Z,77
2017-06-18T04:04:59.220Z,76.9
2017-06-18T04:05:58.454Z,76.6
2017-06-18T04:06:57.685Z,76.4
2017-06-18T04:07:56.920Z,76.4
2017-06-18T04:08:27.545Z,76.4
2017-06-18T04:09:55.611Z,75.7
2017-06-18T04:10:54.840Z,75.6
2017-06-18T04:11:54.079Z,75.4
2017-06-18T04:13:52.082Z,75.4
2017-06-18T04:14:51.816Z,75
2017-06-18T04:15:50.929Z,74.7
2017-06-18T04:16:50.153Z,74.6
2017-06-18T04:17:49.261Z,74.7
2017-06-18T04:18:48.466Z,74.7
2017-06-18T04:19:47.577Z,74.4
2017-06-18T04:20:46.810Z,74.1
2017-06-18T04:21:46.426Z,73.8
2017-06-18T04:22:45.537Z,73.2
2017-06-18T04:23:44.645Z,73.2
2017-06-18T04:24:43.870Z,72.9
2017-06-18T04:25:43.098Z,73.3
2017-06-18T04:26:42.241Z,73.3
2017-06-18T04:27:41.466Z,73.4
2017-06-18T04:29:39.973Z,72.9
2017-06-18T04:31:38.595Z,72.8
2017-06-18T04:32:37.824Z,72.5
2017-06-18T04:33:36.951Z,72.5
2017-06-18T04:34:36.066Z,72.4
2017-06-18T04:35:35.680Z,72
2017-06-18T04:36:34.906Z,71.7
2017-06-18T04:37:34.137Z,71.4
2017-06-18T04:38:33.362Z,71
2017-06-18T04:39:32.613Z,70.8
2017-06-18T04:40:31.852Z,70.8
2017-06-18T04:41:30.669Z,69.7
2017-06-18T04:42:29.899Z,69.3
2017-06-18T04:43:29.128Z,69.2
2017-06-18T04:44:28.801Z,69.2
2017-06-18T04:45:27.916Z,69.3
2017-06-18T04:46:27.029Z,68.7
2017-06-18T04:47:26.263Z,69.2
2017-06-18T04:48:25.563Z,69.2
2017-06-18T04:49:24.671Z,69.2
2017-06-18T04:50:23.787Z,69.1
2017-06-18T04:51:23.044Z,69.3
2017-06-18T04:52:22.276Z,69.4
2017-06-18T04:53:21.584Z,69.1
2017-06-18T04:54:20.574Z,68.7
2017-06-18T04:55:20.070Z,68.7
2017-06-18T04:56:19.371Z,68.3
2017-06-18T04:57:18.443Z,67.7
2017-06-18T04:58:17.556Z,67.3
2017-06-18T04:59:17.168Z,67.1
2017-06-18T05:02:14.581Z,66.9
2017-06-18T05:03:13.813Z,66.5
2017-06-18T05:04:13.042Z,66.7
2017-06-18T05:05:12.269Z,66.5
2017-06-18T05:06:11.380Z,66.5
2017-06-18T05:07:11.117Z,66.1
2017-06-18T05:08:10.345Z,65.9
2017-06-18T05:09:09.575Z,65.6
2017-06-18T05:11:07.570Z,64.7
2017-06-18T05:12:07.067Z,64.3
2017-06-18T05:13:06.299Z,64.2
2017-06-18T05:14:05.418Z,64.1
2017-06-18T05:15:04.531Z,64.1
2017-06-18T05:16:04.257Z,64
2017-06-18T05:17:03.372Z,63.4
2017-06-18T05:18:02.938Z,62.7
2017-06-18T05:19:01.665Z,63.2
2017-06-18T05:20:00.895Z,63.1
2017-06-18T05:21:00.200Z,63
2017-06-18T05:21:59.425Z,63
2017-06-18T05:22:58.660Z,63
2017-06-18T05:23:57.773Z,63
2017-06-18T05:24:57.271Z,63.1
2017-06-18T05:25:56.503Z,63.3
2017-06-18T05:26:55.739Z,62.4
2017-06-18T05:27:55.044Z,62
2017-06-18T05:28:54.156Z,61.6
2017-06-18T05:29:53.274Z,61
2017-06-18T05:30:52.889Z,60.9
2017-06-18T05:31:51.998Z,60.5
2017-06-18T05:32:51.107Z,60.6
2017-06-18T05:33:50.792Z,60.6
2017-06-18T05:34:49.446Z,59.8
2017-06-18T05:35:49.178Z,59.2
2017-06-18T05:36:48.414Z,59.4
2017-06-18T05:37:47.533Z,59.5
2017-06-18T05:38:46.649Z,59.2
2017-06-18T05:40:45.149Z,59.4
2017-06-18T05:41:44.266Z,59.2
2017-06-18T05:42:43.498Z,59.5
2017-06-18T05:43:42.485Z,59.7
2017-06-18T05:44:41.866Z,59.9
2017-06-18T05:45:41.365Z,59.6
2017-06-18T05:46:40.482Z,60
2017-06-18T05:47:39.484Z,59.6
2017-06-18T05:48:38.866Z,59.4
2017-06-18T05:50:37.753Z,58.5
2017-06-18T05:51:36.986Z,57.9
2017-06-18T05:52:36.094Z,57.9
2017-06-18T05:53:35.127Z,58.2
2017-06-18T05:54:34.853Z,58.6
2017-06-18T05:55:33.967Z,59
2017-06-18T05:56:33.200Z,59
2017-06-18T05:57:32.429Z,59
2017-06-18T05:58:31.538Z,59
2017-06-18T06:00:30.040Z,58.6
2017-06-18T06:01:29.266Z,58.2
2017-06-18T06:02:28.369Z,57.5
2017-06-18T06:04:26.984Z,56
2017-06-18T06:05:26.214Z,56.1
2017-06-18T06:06:25.948Z,56.9
2017-06-18T06:07:25.181Z,56.5
2017-06-18T06:08:24.414Z,56
2017-06-18T06:09:23.645Z,56.1
2017-06-18T06:10:22.881Z,56.2
2017-06-18T06:11:22.120Z,56
2017-06-18T06:12:21.265Z,55.6
2017-06-18T06:13:20.496Z,55.7
2017-06-18T06:14:19.606Z,55.7
2017-06-18T06:15:18.837Z,55.7
2017-06-18T06:16:18.066Z,55.7
2017-06-18T06:17:17.799Z,54.6
2017-06-18T06:18:17.027Z,53.6
2017-06-18T06:19:16.271Z,53.9
2017-06-18T06:20:15.388Z,54.8
2017-06-18T06:21:14.617Z,54.4
2017-06-18T06:22:13.847Z,54.8
2017-06-18T06:23:12.973Z,54.9
2017-06-18T06:24:12.203Z,54.9
2017-06-18T06:25:11.821Z,54.4
2017-06-18T06:26:10.934Z,53.9
2017-06-18T06:27:10.069Z,53.4
2017-06-18T06:28:09.657Z,53.4
2017-06-18T06:29:08.891Z,53.3
2017-06-18T06:30:08.091Z,53.5
2017-06-18T06:31:07.208Z,53.5
2017-06-18T06:32:06.444Z,53.5
2017-06-18T06:33:06.644Z,52.7
2017-06-18T06:34:04.870Z,52.5
2017-06-18T06:35:04.497Z,52.8
2017-06-18T06:36:03.668Z,52.5
2017-06-18T06:37:02.782Z,51.4
2017-06-18T06:38:01.892Z,51.4
2017-06-18T06:39:01.544Z,51.2
2017-06-18T06:40:00.779Z,51.5
2017-06-18T06:41:00.017Z,52.2
2017-06-18T06:41:59.249Z,53
2017-06-18T06:42:58.364Z,52.4
2017-06-18T06:43:57.601Z,52.9
2017-06-18T06:44:57.218Z,52.9
2017-06-18T06:45:56.455Z,51.9
2017-06-18T06:46:55.689Z,51.6
2017-06-18T06:48:54.315Z,51.6
2017-06-18T06:49:53.420Z,51.6
2017-06-18T06:50:52.679Z,51.3
2017-06-18T06:51:51.678Z,51
2017-06-18T06:52:51.186Z,50
2017-06-18T06:53:50.680Z,49.4
2017-06-18T06:54:49.913Z,48.6
2017-06-18T06:55:49.023Z,49
2017-06-18T06:56:48.251Z,49.2
2017-06-18T06:57:47.479Z,49.1
2017-06-18T06:58:47.217Z,48.7
2017-06-18T06:59:46.340Z,48.5
2017-06-18T07:00:45.569Z,48.7
2017-06-18T07:01:44.802Z,49.2
2017-06-18T07:02:44.301Z,49
2017-06-18T07:03:43.537Z,48.5
2017-06-18T07:04:42.768Z,48.7
2017-06-18T07:05:41.888Z,48.7
2017-06-18T07:06:41.115Z,49.4
2017-06-18T07:07:40.347Z,49.2
2017-06-18T07:08:39.463Z,48.9
2017-06-18T07:09:39.195Z,48.5
2017-06-18T07:10:38.309Z,47.4
2017-06-18T07:11:37.537Z,47.1
2017-06-18T07:12:36.719Z,47.1
2017-06-18T07:13:36.516Z,48
2017-06-18T07:14:35.626Z,48.2
2017-06-18T07:15:34.924Z,48.7
2017-06-18T07:16:34.159Z,49.1
2017-06-18T07:18:32.783Z,50.1
2017-06-18T07:19:32.013Z,50.7
2017-06-18T07:20:31.245Z,50.6
2017-06-18T07:21:30.479Z,50.7
2017-06-18T07:22:30.097Z,50.7
2017-06-18T07:23:29.326Z,49.7
2017-06-18T07:24:28.552Z,48.4
2017-06-18T07:25:27.664Z,47.4
2017-06-18T07:26:26.774Z,47.5
2017-06-18T07:27:26.509Z,47.6
2017-06-18T07:28:25.765Z,48
2017-06-18T07:30:24.385Z,48.6
2017-06-18T07:31:23.503Z,49.2
2017-06-18T07:32:22.618Z,49.3
2017-06-18T07:33:22.367Z,49.6
2017-06-18T07:34:21.487Z,50.6
2017-06-18T07:35:20.725Z,51.3
2017-06-18T07:36:19.965Z,51.2
2017-06-18T07:37:19.460Z,50.9
2017-06-18T07:38:18.570Z,50.9
2017-06-18T07:39:17.682Z,50.9
2017-06-18T07:40:17.300Z,50.9
2017-06-18T07:41:16.532Z,48.9
2017-06-18T07:42:15.528Z,48.3
2017-06-18T07:43:15.255Z,48.2
2017-06-18T07:44:14.486Z,48.2
2017-06-18T07:45:13.714Z,47.8
2017-06-18T07:46:12.949Z,47.6
2017-06-18T07:47:12.176Z,46.1
2017-06-18T07:49:10.562Z,45.9
2017-06-18T07:50:10.565Z,45.2
2017-06-18T07:51:09.564Z,45.4
2017-06-18T07:53:08.071Z,43.9
2017-06-18T07:54:07.806Z,43.5
2017-06-18T07:55:07.042Z,43.9
2017-06-18T07:56:06.157Z,43.9
2017-06-18T07:57:05.392Z,43.9
2017-06-18T07:58:04.505Z,42.4
2017-06-18T07:59:04.117Z,43.3
2017-06-18T08:00:03.231Z,44.3
2017-06-18T08:02:01.846Z,44
2017-06-18T08:03:01.580Z,44.5
2017-06-18T08:04:00.819Z,44.6
2017-06-18T08:05:00.047Z,44.9
2017-06-18T08:05:59.167Z,44.9
2017-06-18T08:06:29.716Z,44.9
2017-06-18T08:07:00.262Z,45.3
2017-06-18T08:07:30.566Z,45.3
2017-06-18T08:08:57.475Z,46.1
2017-06-18T08:09:57.290Z,45.8
2017-06-18T08:10:56.477Z,46.2
2017-06-18T08:11:55.209Z,44.1
2017-06-18T08:12:54.320Z,43.9
2017-06-18T08:13:53.823Z,43.9
2017-06-18T08:14:52.936Z,42.8
2017-06-18T08:15:52.666Z,43.2
2017-06-18T08:16:51.909Z,43.5
2017-06-18T08:17:51.157Z,44.1
2017-06-18T08:18:50.774Z,44.1
2017-06-18T08:19:49.884Z,43.6
2017-06-18T08:20:49.116Z,42.7
2017-06-18T08:21:48.353Z,42.4
2017-06-18T08:22:48.089Z,42.9
2017-06-18T08:23:47.201Z,42.8
2017-06-18T08:24:46.435Z,42.8
2017-06-18T08:25:45.815Z,44.2
2017-06-18T08:26:45.046Z,44.7
2017-06-18T08:27:45.241Z,45.3
2017-06-18T08:28:43.843Z,45.9
2017-06-18T08:30:42.340Z,45.9
2017-06-18T08:31:42.071Z,46.3
2017-06-18T08:32:41.303Z,47
2017-06-18T08:33:40.412Z,47
2017-06-18T08:34:39.637Z,47
2017-06-18T08:35:39.249Z,45.6
2017-06-18T08:36:38.129Z,44.8
2017-06-18T08:37:37.867Z,44.4
2017-06-18T08:38:37.089Z,43.8
2017-06-18T08:39:36.315Z,43.6
2017-06-18T08:40:36.054Z,44.3
2017-06-18T08:41:35.292Z,44.2
2017-06-18T08:42:34.517Z,44.5
2017-06-18T08:43:34.131Z,43.5
2017-06-18T08:44:33.136Z,44
2017-06-18T08:45:32.242Z,44.4
2017-06-18T08:46:31.861Z,43.7
2017-06-18T08:48:30.754Z,43.3
2017-06-18T08:49:29.862Z,42.4
2017-06-18T08:50:28.969Z,42.3
2017-06-18T08:51:28.705Z,41.6
2017-06-18T08:52:27.937Z,41.6
2017-06-18T08:53:27.555Z,42
2017-06-18T08:54:26.667Z,42
2017-06-18T08:55:25.901Z,41.6
2017-06-18T08:56:25.516Z,41.9
2017-06-18T08:57:25.325Z,42.3
2017-06-18T08:58:24.054Z,42.5
2017-06-18T08:59:23.310Z,41.9
2017-06-18T09:00:22.423Z,41.9
2017-06-18T09:01:22.171Z,41.2
2017-06-18T09:02:21.286Z,39.5
2017-06-18T09:04:19.911Z,38.9
2017-06-18T09:05:19.171Z,38.9
2017-06-18T09:06:18.812Z,38.9
2017-06-18T09:07:18.057Z,40.1
2017-06-18T09:08:17.792Z,40.1
2017-06-18T09:09:17.023Z,40
2017-06-18T09:10:16.255Z,40.3
2017-06-18T09:11:15.484Z,39.3
2017-06-18T09:12:14.591Z,39.6
2017-06-18T09:13:14.324Z,39.6
2017-06-18T09:13:44.862Z,39.6
2017-06-18T09:15:12.660Z,40.8
2017-06-18T09:16:12.154Z,41.4
2017-06-18T09:17:11.767Z,41.1
2017-06-18T09:18:10.880Z,41.3
2017-06-18T09:19:10.613Z,42.4
2017-06-18T09:21:09.238Z,43.1
2017-06-18T09:22:08.895Z,43.1
2017-06-18T09:23:07.507Z,43.1
2017-06-18T09:24:06.889Z,43.6
2017-06-18T09:25:06.633Z,44.4
2017-06-18T09:26:05.763Z,44.8
2017-06-18T09:27:05.143Z,45
2017-06-18T09:28:04.638Z,44.5
2017-06-18T09:29:03.768Z,44.8
2017-06-18T09:30:03.266Z,44.8
2017-06-18T09:31:02.388Z,45
2017-06-18T09:32:02.077Z,44.4
2017-06-18T09:33:01.198Z,43.8
2017-06-18T09:34:00.686Z,43.6
2017-06-18T09:34:59.918Z,43.8
2017-06-18T09:35:59.674Z,42.8
2017-06-18T09:36:58.910Z,42.6
2017-06-18T09:38:57.411Z,40.9
2017-06-18T09:39:57.147Z,40.9
2017-06-18T09:40:56.150Z,39.7
2017-06-18T09:41:55.261Z,40.7
2017-06-18T09:42:54.639Z,41
2017-06-18T09:43:54.375Z,39.5
2017-06-18T09:44:53.608Z,38.7
2017-06-18T09:45:53.310Z,37.7
2017-06-18T09:46:52.540Z,38.3
2017-06-18T09:47:51.767Z,35.9
2017-06-18T09:48:50.998Z,35.8
2017-06-18T09:49:50.612Z,36.5
2017-06-18T09:50:49.848Z,36.5
2017-06-18T09:51:49.470Z,37.1
2017-06-18T09:52:48.709Z,38.2
2017-06-18T09:53:47.819Z,38.6
2017-06-18T09:54:47.541Z,38.3
2017-06-18T09:55:46.660Z,38.4
2017-06-18T09:56:46.469Z,38.4
2017-06-18T09:57:45.767Z,38.4
2017-06-18T09:58:44.992Z,38.1
2017-06-18T09:59:44.221Z,37.5
2017-06-18T10:00:43.497Z,38.1
2017-06-18T10:01:42.878Z,39.1
2017-06-18T10:02:41.989Z,39.6
2017-06-18T10:03:41.629Z,39.9
2017-06-18T10:04:40.865Z,39.1
2017-06-18T10:05:40.101Z,39.3
2017-06-18T10:06:39.833Z,38.5
2017-06-18T10:07:38.943Z,38.1
2017-06-18T10:08:38.676Z,37.4
2017-06-18T10:09:37.788Z,37.3
2017-06-18T10:10:37.017Z,37.4
2017-06-18T10:11:36.327Z,38.3
2017-06-18T10:12:35.941Z,39.1
2017-06-18T10:13:35.751Z,39.1
2017-06-18T10:14:34.754Z,39.1
2017-06-18T10:15:33.988Z,39.4
2017-06-18T10:16:33.226Z,39.7
2017-06-18T10:17:32.844Z,40.4
2017-06-18T10:18:32.665Z,39.8
2017-06-18T10:19:31.401Z,40.4
2017-06-18T10:20:31.032Z,40.8
2017-06-18T10:21:30.031Z,41.3
2017-06-18T10:22:29.775Z,42.1
2017-06-18T10:23:28.890Z,42.4
2017-06-18T10:24:28.635Z,42.7
2017-06-18T10:25:27.747Z,42.6
2017-06-18T10:26:27.480Z,43.2
2017-06-18T10:27:26.716Z,43.6
2017-06-18T10:27:57.257Z,43.6
2017-06-18T10:28:27.803Z,42.9
2017-06-18T10:29:25.524Z,42.3
2017-06-18T10:30:24.403Z,42.6
2017-06-18T10:31:24.405Z,42.6
2017-06-18T10:32:23.514Z,42.6
2017-06-18T10:33:23.013Z,42.4
2017-06-18T10:34:22.128Z,42.2
2017-06-18T10:35:21.857Z,42.5
2017-06-18T10:36:21.094Z,42.1
2017-06-18T10:37:20.402Z,42.1
2017-06-18T10:38:20.016Z,41.7
2017-06-18T10:39:19.256Z,41
2017-06-18T10:40:18.862Z,40.8
2017-06-18T10:41:17.974Z,41.4
2017-06-18T10:42:17.475Z,40.9
2017-06-18T10:43:16.709Z,40.7
2017-06-18T10:44:16.333Z,40.5
2017-06-18T10:45:16.139Z,40.6
2017-06-18T10:46:14.869Z,40.4
2017-06-18T10:47:14.478Z,40.5
2017-06-18T10:49:13.103Z,40.5
2017-06-18T10:51:12.226Z,41.6
2017-06-18T10:52:12.036Z,42
2017-06-18T10:53:10.853Z,42.8
2017-06-18T10:54:10.080Z,43.3
2017-06-18T10:55:09.697Z,43.6
2017-06-18T10:56:08.817Z,42.7
2017-06-18T10:57:09.133Z,42.7
2017-06-18T10:58:07.864Z,42.1
2017-06-18T10:59:07.105Z,42.2
2017-06-18T11:00:06.682Z,41.7
2017-06-18T11:01:05.913Z,41.7
2017-06-18T11:02:05.642Z,42.4
2017-06-18T11:03:04.643Z,42.5
2017-06-18T11:04:04.382Z,42.4
2017-06-18T11:05:03.496Z,41.3
2017-06-18T11:06:03.124Z,41.3
2017-06-18T11:07:02.232Z,41.3
2017-06-18T11:08:01.978Z,40.3
2017-06-18T11:09:01.591Z,41.1
2017-06-18T11:11:00.216Z,40.1
2017-06-18T11:11:59.209Z,40
2017-06-18T11:12:58.946Z,40.6
2017-06-18T11:13:58.326Z,41.5
2017-06-18T11:14:57.939Z,40.3
2017-06-18T11:15:57.245Z,40.7
2017-06-18T11:16:56.359Z,41.6
2017-06-18T11:17:56.042Z,42.8
2017-06-18T11:18:55.782Z,43.2
2017-06-18T11:19:55.013Z,43.6
2017-06-18T11:20:54.237Z,43.8
2017-06-18T11:21:54.429Z,43.2
2017-06-18T11:22:53.045Z,43.3
2017-06-18T11:23:52.663Z,43.3
2017-06-18T11:24:51.653Z,43.3
2017-06-18T11:25:51.267Z,44.2
2017-06-18T11:26:50.965Z,43.9
2017-06-18T11:27:50.586Z,43.9
2017-06-18T11:28:49.817Z,43.9
2017-06-18T11:29:48.928Z,43.6
2017-06-18T11:30:48.542Z,43.3
2017-06-18T11:31:48.275Z,42.9
2017-06-18T11:32:47.506Z,42.7
2017-06-18T11:33:46.884Z,42.9
2017-06-18T11:34:46.114Z,40.9
2017-06-18T11:35:45.847Z,42
2017-06-18T11:36:45.089Z,41.8
2017-06-18T11:37:44.583Z,42.2
2017-06-18T11:39:43.469Z,43.2
2017-06-18T11:40:42.962Z,42.7
2017-06-18T11:41:42.468Z,42.7
2017-06-18T11:42:41.699Z,42.7
2017-06-18T11:43:41.317Z,42.4
2017-06-18T11:44:40.553Z,42.4
2017-06-18T11:46:39.677Z,41.6
2017-06-18T11:47:38.666Z,41.8
2017-06-18T11:48:38.288Z,41.6
2017-06-18T11:49:38.024Z,42.9
2017-06-18T11:50:37.262Z,43.1
2017-06-18T11:51:36.496Z,42.8
2017-06-18T11:52:36.227Z,42.6
2017-06-18T11:53:35.453Z,42.2
2017-06-18T11:54:35.060Z,42.4
2017-06-18T11:55:34.171Z,42.2
2017-06-18T11:56:33.870Z,41.9
2017-06-18T11:57:33.605Z,42.1
2017-06-18T11:58:32.832Z,41.2
2017-06-18T11:59:32.560Z,41.2
2017-06-18T12:00:31.789Z,41.2
2017-06-18T12:01:30.785Z,41.1
2017-06-18T12:02:30.524Z,40.8
2017-06-18T12:03:29.901Z,41.2
2017-06-18T12:04:29.402Z,40.6
2017-06-18T12:05:29.144Z,40.6
2017-06-18T12:06:28.376Z,40.1
2017-06-18T12:07:27.995Z,39.6
2017-06-18T12:08:27.889Z,40.3
2017-06-18T12:09:27.119Z,40.7
2017-06-18T12:10:26.351Z,41
2017-06-18T12:11:26.090Z,41.4
2017-06-18T12:12:25.206Z,41.5
2017-06-18T12:13:24.938Z,41.5
2017-06-18T12:14:24.361Z,41.4
2017-06-18T12:15:23.596Z,41.4
2017-06-18T12:16:23.326Z,41.8
2017-06-18T12:17:22.556Z,41.8
2017-06-18T12:18:22.168Z,41.8
2017-06-18T12:19:21.791Z,41.3
2017-06-18T12:20:20.784Z,41.2
2017-06-18T12:21:20.400Z,40.6
2017-06-18T12:22:20.020Z,39.9
2017-06-18T12:23:19.639Z,39.7
2017-06-18T12:24:19.256Z,39.6
2017-06-18T12:25:18.494Z,40.6
2017-06-18T12:26:18.230Z,40.4
2017-06-18T12:27:17.457Z,39.9
2017-06-18T12:28:17.189Z,39.8
2017-06-18T12:29:16.221Z,39.5
2017-06-18T12:30:15.963Z,40.2
2017-06-18T12:31:15.197Z,40.4
2017-06-18T12:32:15.522Z,39.6
2017-06-18T12:33:14.243Z,39.9
2017-06-18T12:35:13.369Z,39.8
2017-06-18T12:36:12.869Z,39.8
2017-06-18T12:37:12.607Z,40.1
2017-06-18T12:38:11.836Z,39.9
2017-06-18T12:39:11.338Z,40.3
2017-06-18T12:40:11.653Z,40.3
2017-06-18T12:41:10.385Z,41.2
2017-06-18T12:42:09.767Z,39.9
2017-06-18T12:43:09.421Z,39.9
2017-06-18T12:44:08.651Z,40.4
2017-06-18T12:45:08.159Z,40.7
2017-06-18T12:46:07.899Z,41.1
2017-06-18T12:47:07.016Z,41.1
2017-06-18T12:48:07.209Z,41.6
2017-06-18T12:49:06.084Z,41
2017-06-18T12:50:05.829Z,40.8
2017-06-18T12:51:05.448Z,38.9
2017-06-18T12:52:05.065Z,39.3
2017-06-18T12:53:04.442Z,39.3
2017-06-18T12:54:03.680Z,39.3
2017-06-18T12:55:03.422Z,39.9
2017-06-18T12:56:02.920Z,40.1
2017-06-18T12:57:02.653Z,41
2017-06-18T12:58:01.885Z,40.5
2017-06-18T12:59:01.618Z,40.5
2017-06-18T13:00:00.681Z,39.8
2017-06-18T13:01:00.182Z,40.4
2017-06-18T13:01:59.804Z,40.5
2017-06-18T13:02:59.536Z,40.4
2017-06-18T13:03:58.768Z,40.2
2017-06-18T13:04:58.408Z,41.7
2017-06-18T13:05:58.165Z,41.2
2017-06-18T13:06:57.276Z,41.8
2017-06-18T13:07:56.989Z,41.3
2017-06-18T13:08:56.601Z,41.3
2017-06-18T13:09:56.218Z,41.2
2017-06-18T13:10:55.595Z,41.2
2017-06-18T13:11:54.993Z,41.2
2017-06-18T13:12:54.727Z,41.7
2017-06-18T13:13:54.235Z,41.9
2017-06-18T13:14:53.735Z,40.3
2017-06-18T13:15:53.355Z,40.4
2017-06-18T13:16:52.855Z,40.8
2017-06-18T13:17:52.468Z,40.7
2017-06-18T13:18:51.576Z,41.4
2017-06-18T13:19:51.309Z,41.5
2017-06-18T13:20:50.933Z,41.5
2017-06-18T13:21:50.312Z,41.6
2017-06-18T13:22:50.048Z,41.6
2017-06-18T13:23:49.437Z,41.9
2017-06-18T13:24:48.945Z,42.1
2017-06-18T13:25:48.558Z,42
2017-06-18T13:26:48.058Z,42
2017-06-18T13:27:47.787Z,41.7
2017-06-18T13:28:47.027Z,41.4
2017-06-18T13:29:46.643Z,41.4
2017-06-18T13:30:46.390Z,41.4
2017-06-18T13:31:45.775Z,41.4
2017-06-18T13:32:44.900Z,41.3
2017-06-18T13:33:44.396Z,40.9
2017-06-18T13:34:44.163Z,40.1
2017-06-18T13:35:43.695Z,40.7
2017-06-18T13:36:43.078Z,41.2
2017-06-18T13:37:42.577Z,40.3
2017-06-18T13:38:42.314Z,40.5
2017-06-18T13:39:41.696Z,41.1
2017-06-18T13:40:41.400Z,41
2017-06-18T13:41:41.129Z,39.9
2017-06-18T13:42:11.437Z,39.9
2017-06-18T13:42:41.982Z,39.9
2017-06-18T13:43:40.208Z,40.2